createdAt,value
2023-03-30T00:04:47.444Z,6.47
2023-03-30T00:09:54.960Z,6.45
2023-03-30T00:15:02.599Z,6.43
2023-03-30T00:20:11.994Z,6.40
2023-03-30T00:25:20.008Z,6.38
2023-03-30T00:30:27.131Z,6.39
2023-03-30T00:35:34.688Z,6.37
2023-03-30T00:40:41.702Z,6.37
2023-03-30T00:45:48.821Z,6.37
2023-03-30T00:50:59.662Z,6.37
2023-03-30T00:56:09.934Z,6.36
2023-03-30T01:01:25.761Z,6.36
2023-03-30T01:06:35.224Z,6.38
2023-03-30T01:11:43.655Z,6.40
2023-03-30T01:16:56.980Z,6.39
2023-03-30T01:22:22.504Z,6.40
2023-03-30T01:27:48.553Z,6.41
2023-03-30T01:33:24.743Z,6.41
2023-03-30T01:39:04.818Z,6.41
2023-03-30T01:44:19.326Z,6.42
2023-03-30T01:49:30.101Z,6.43
2023-03-30T01:54:43.183Z,6.44
2023-03-30T01:59:56.281Z,6.43
2023-03-30T02:05:06.375Z,6.42
2023-03-30T02:10:15.747Z,6.41
2023-03-30T02:15:23.722Z,6.40
2023-03-30T02:20:31.949Z,6.41
2023-03-30T02:25:40.413Z,6.42
2023-03-30T02:30:48.079Z,6.43
2023-03-30T02:36:11.039Z,6.42
2023-03-30T02:41:31.005Z,6.42
2023-03-30T02:47:01.122Z,6.43
2023-03-30T02:52:19.765Z,6.46
2023-03-30T02:57:37.597Z,6.50
2023-03-30T03:03:17.291Z,6.54
2023-03-30T03:08:28.256Z,6.55
2023-03-30T03:13:36.945Z,6.58
2023-03-30T03:18:44.778Z,6.60
2023-03-30T03:23:52.593Z,6.60
2023-03-30T03:29:01.311Z,6.62
2023-03-30T03:34:08.981Z,6.64
2023-03-30T03:39:33.474Z,6.65
2023-03-30T03:44:45.838Z,6.65
2023-03-30T03:49:52.699Z,6.65
2023-03-30T03:54:59.766Z,6.67
2023-03-30T04:00:15.751Z,6.70
2023-03-30T04:05:23.225Z,6.71
2023-03-30T04:10:31.684Z,6.72
2023-03-30T04:15:57.339Z,6.75
2023-03-30T04:21:20.383Z,6.78
2023-03-30T04:26:48.928Z,6.83
2023-03-30T04:32:08.295Z,6.84
2023-03-30T04:37:31.571Z,6.82
2023-03-30T04:43:02.660Z,6.79
2023-03-30T04:48:28.287Z,6.78
2023-03-30T04:54:03.505Z,6.74
2023-03-30T04:59:33.407Z,6.72
2023-03-30T05:04:49.845Z,6.73
2023-03-30T05:10:23.338Z,6.72
2023-03-30T05:15:55.777Z,6.72
2023-03-30T05:21:21.464Z,6.75
2023-03-30T05:26:52.043Z,6.78
2023-03-30T05:32:17.122Z,6.83
2023-03-30T05:37:44.322Z,6.86
2023-03-30T05:43:20.857Z,6.89
2023-03-30T05:48:47.048Z,6.91
2023-03-30T05:54:15.421Z,6.99
2023-03-30T05:59:46.373Z,7.14
2023-03-30T06:05:05.290Z,7.37
2023-03-30T06:10:14.064Z,7.56
2023-03-30T06:15:22.302Z,7.70
2023-03-30T06:20:38.019Z,7.81
2023-03-30T06:25:53.349Z,7.85
2023-03-30T06:31:08.572Z,7.94
2023-03-30T06:36:17.297Z,8.03
2023-03-30T06:41:25.981Z,8.16
2023-03-30T06:46:34.264Z,8.26
2023-03-30T06:51:40.410Z,8.36
2023-03-30T06:56:50.084Z,8.47
2023-03-30T07:01:58.443Z,8.65
2023-03-30T07:07:33.894Z,8.86
2023-03-30T07:12:43.318Z,9.03
2023-03-30T07:17:50.825Z,9.29
2023-03-30T07:22:58.086Z,9.58
2023-03-30T07:28:06.392Z,9.85
2023-03-30T07:33:14.842Z,10.03
2023-03-30T07:38:28.271Z,10.11
2023-03-30T07:43:35.742Z,10.13
2023-03-30T07:48:43.358Z,10.21
2023-03-30T07:53:52.195Z,10.45
2023-03-30T07:59:08.252Z,10.83
2023-03-30T08:04:16.496Z,11.04
2023-03-30T08:09:23.883Z,11.05
2023-03-30T08:14:31.659Z,11.20
2023-03-30T08:19:38.941Z,11.46
2023-03-30T08:24:46.059Z,11.84
2023-03-30T08:29:54.447Z,12.20
2023-03-30T08:35:01.448Z,12.36
2023-03-30T08:40:11.910Z,12.43
2023-03-30T08:45:19.505Z,12.50
2023-03-30T08:50:32.854Z,12.52
2023-03-30T08:55:44.267Z,12.55
2023-03-30T09:00:55.340Z,12.71
2023-03-30T09:06:10.673Z,13.04
2023-03-30T09:11:23.340Z,13.36
2023-03-30T09:16:39.881Z,13.68
2023-03-30T09:21:47.941Z,13.71
2023-03-30T09:27:00.986Z,13.69
2023-03-30T09:32:15.252Z,13.89
2023-03-30T09:37:23.536Z,14.00
2023-03-30T09:42:40.004Z,14.23
2023-03-30T09:47:47.171Z,14.30
2023-03-30T09:53:07.212Z,14.26
2023-03-30T09:58:18.800Z,14.25
2023-03-30T10:03:27.570Z,14.54
2023-03-30T10:08:38.629Z,14.83
2023-03-30T10:13:46.326Z,15.01
2023-03-30T10:18:58.447Z,15.38
2023-03-30T10:24:09.256Z,15.66
2023-03-30T10:29:19.750Z,15.87
2023-03-30T10:34:38.152Z,16.24
2023-03-30T10:39:48.118Z,16.56
2023-03-30T10:45:02.491Z,16.80
2023-03-30T10:50:27.228Z,16.89
2023-03-30T10:55:45.560Z,16.81
2023-03-30T11:01:13.090Z,16.82
2023-03-30T11:06:38.766Z,16.68
2023-03-30T11:11:53.817Z,16.41
2023-03-30T11:17:09.241Z,16.27
2023-03-30T11:22:26.288Z,16.24
2023-03-30T11:27:40.640Z,16.28
2023-03-30T11:32:55.176Z,16.25
2023-03-30T11:38:08.094Z,16.16
2023-03-30T11:43:16.680Z,16.11
2023-03-30T11:48:51.317Z,16.07
2023-03-30T11:54:06.807Z,15.83
2023-03-30T11:59:23.951Z,15.63
2023-03-30T12:04:38.634Z,15.48
2023-03-30T12:09:51.175Z,15.53
2023-03-30T12:15:06.968Z,15.55
2023-03-30T12:20:29.304Z,15.50
2023-03-30T12:25:45.869Z,15.35
2023-03-30T12:30:59.819Z,15.19
2023-03-30T12:36:23.224Z,15.08
2023-03-30T12:41:41.733Z,15.07
2023-03-30T12:47:00.670Z,15.13
2023-03-30T12:52:14.328Z,15.20
2023-03-30T12:57:34.523Z,15.17
2023-03-30T13:02:58.029Z,15.18
2023-03-30T13:08:21.422Z,15.22
2023-03-30T13:13:50.896Z,15.36
2023-03-30T13:19:11.331Z,15.40
2023-03-30T13:24:33.173Z,15.19
2023-03-30T13:29:40.691Z,14.98
2023-03-30T13:35:07.469Z,14.94
2023-03-30T13:40:34.745Z,14.96
2023-03-30T13:46:09.285Z,15.05
2023-03-30T13:51:27.416Z,15.03
2023-03-30T13:56:37.027Z,14.93
2023-03-30T14:01:48.254Z,14.87
2023-03-30T14:06:58.395Z,14.83
2023-03-30T14:12:07.766Z,14.81
2023-03-30T14:17:22.115Z,14.75
2023-03-30T14:22:31.437Z,14.71
2023-03-30T14:27:40.383Z,14.63
2023-03-30T14:32:47.444Z,14.58
2023-03-30T14:37:55.801Z,14.53
2023-03-30T14:43:06.232Z,14.52
2023-03-30T14:48:24.088Z,14.49
2023-03-30T14:53:32.604Z,14.45
2023-03-30T14:58:39.881Z,14.45
2023-03-30T15:03:48.431Z,14.40
2023-03-30T15:09:00.372Z,14.39
2023-03-30T15:14:11.078Z,14.44
2023-03-30T15:19:27.666Z,14.48
2023-03-30T15:24:37.453Z,14.56
2023-03-30T15:29:45.776Z,14.65
2023-03-30T15:35:18.231Z,14.64
2023-03-30T15:40:37.631Z,14.49
2023-03-30T15:45:49.085Z,14.33
2023-03-30T15:51:04.992Z,14.21
2023-03-30T15:56:19.503Z,14.11
2023-03-30T16:01:29.223Z,13.99
2023-03-30T16:06:36.400Z,13.90
2023-03-30T16:11:44.072Z,13.83
2023-03-30T16:16:51.402Z,13.76
2023-03-30T16:21:58.297Z,13.72
2023-03-30T16:27:06.632Z,13.68
2023-03-30T16:32:13.459Z,13.68
2023-03-30T16:37:20.782Z,13.83
2023-03-30T16:42:27.751Z,13.97
2023-03-30T16:52:43.955Z,14.11
2023-03-30T16:57:51.732Z,14.07
2023-03-30T17:02:59.230Z,14.06
2023-03-30T17:08:08.450Z,13.98
2023-03-30T17:13:15.349Z,13.83
2023-03-30T17:18:26.001Z,13.66
2023-03-30T17:23:34.416Z,13.51
2023-03-30T17:28:42.358Z,13.37
2023-03-30T17:33:50.027Z,13.24
2023-03-30T17:38:59.415Z,13.15
2023-03-30T17:44:06.652Z,13.05
2023-03-30T17:49:19.384Z,12.96
2023-03-30T17:54:27.620Z,12.92
2023-03-30T17:59:34.761Z,12.85
2023-03-30T18:04:41.775Z,12.82
2023-03-30T18:09:48.728Z,12.81
2023-03-30T18:14:55.913Z,12.86
2023-03-30T18:20:04.683Z,12.86
2023-03-30T18:25:21.948Z,12.85
2023-03-30T18:30:39.601Z,12.82
2023-03-30T18:35:48.439Z,12.79
2023-03-30T18:40:58.731Z,12.82
2023-03-30T18:46:06.311Z,12.86
2023-03-30T18:51:14.592Z,12.86
2023-03-30T18:56:22.017Z,12.82
2023-03-30T19:01:29.096Z,12.87
2023-03-30T19:06:36.648Z,12.96
2023-03-30T19:11:43.795Z,13.03
2023-03-30T19:16:50.943Z,12.97
2023-03-30T19:21:59.438Z,12.84
2023-03-30T19:27:07.878Z,12.68
2023-03-30T19:32:16.651Z,12.52
2023-03-30T19:37:23.689Z,12.40
2023-03-30T19:42:32.488Z,12.29
2023-03-30T19:47:39.565Z,12.17
2023-03-30T19:52:48.751Z,12.06
2023-03-30T19:57:55.933Z,11.95
2023-03-30T20:03:03.323Z,11.84
2023-03-30T20:08:22.915Z,11.73
2023-03-30T20:13:31.051Z,11.61
2023-03-30T20:18:40.267Z,11.49
2023-03-30T20:23:47.767Z,11.37
2023-03-30T20:28:54.904Z,11.27
2023-03-30T20:34:01.860Z,11.17
2023-03-30T20:39:09.506Z,11.08
2023-03-30T20:44:18.270Z,10.97
2023-03-30T20:49:25.947Z,10.83
2023-03-30T20:54:33.365Z,10.67
2023-03-30T20:59:41.120Z,10.50
2023-03-30T21:04:48.225Z,10.34
2023-03-30T21:09:55.259Z,10.20
2023-03-30T21:15:02.170Z,10.07
2023-03-30T21:20:14.263Z,9.93
2023-03-30T21:25:21.480Z,9.80
2023-03-30T21:30:29.030Z,9.68
2023-03-30T21:35:36.010Z,9.58
2023-03-30T21:40:43.118Z,9.50
2023-03-30T21:45:56.314Z,9.45
2023-03-30T21:51:06.124Z,9.43
2023-03-30T21:56:14.019Z,9.40
2023-03-30T22:01:24.084Z,9.40
2023-03-30T22:06:31.289Z,9.38
2023-03-30T22:11:38.246Z,9.38
2023-03-30T22:16:46.936Z,9.40
2023-03-30T22:21:54.173Z,9.43
2023-03-30T22:27:01.091Z,9.42
2023-03-30T22:32:10.096Z,9.38
2023-03-30T22:37:17.062Z,9.31
2023-03-30T22:42:24.072Z,9.24
2023-03-30T22:47:31.218Z,9.14
2023-03-30T22:52:38.204Z,9.05
2023-03-30T22:57:45.124Z,8.98
2023-03-30T23:02:53.043Z,8.94
2023-03-30T23:08:00.107Z,8.93
2023-03-30T23:13:07.268Z,8.90
2023-03-30T23:18:14.167Z,8.84
2023-03-30T23:23:21.131Z,8.82
2023-03-30T23:28:28.037Z,8.80
2023-03-30T23:33:34.881Z,8.83
2023-03-30T23:38:42.198Z,8.86
2023-03-30T23:43:49.856Z,8.87
2023-03-30T23:48:56.691Z,8.85
2023-03-30T23:54:07.152Z,8.81
2023-03-30T23:59:14.070Z,8.84
